Terminal Aerodrome Forecast
Issued by NWS

Home | Current Version | Previous Version | Text Only | Print | Product List | Glossary On
Versions: 1 2 3 4 5 6 7 8 9 10 11 12 13 14 15 16
000
FTAK31 PAJN 152342 RRB
TAFAGY
TAF
PAGY 152342Z 1600/1624 21015G25KT P6SM -SHRA SCT020 OVC050
     FM160500 21011KT P6SM OVC060
     FM160900 21010G18KT P6SM -RA SCT025 OVC035
     FM161600 21018G28KT 4SM RA BKN015 OVC025
     FM162100 21020G32KT 6SM -RA BR SCT015 OVC025
      AMD LTD TO CLD VIS AND WIND=

USA.gov is the U.S. government's official web portal to all federal, state and local government web resources and services.